Time;durP1;ratioP1;P1;durP2;ratioP2;P2;SDS_P1;SDS_P2;PMS_P1;PMS_P2;Temp;Humidity;BMP_temperature;BMP_pressure;BME280_temperature;BME280_humidity;BME280_pressure;Samples;Min_cycle;Max_cycle;Signal;HPM_P1;HPM_P2
2023/10/04 00:04:43;;;;;;;1.70;1.60;;;;;;;14.36;78.67;99852.90;218040;1258;139527;-79
2023/10/04 00:09:48;;;;;;;2.60;1.20;;;;;;;14.23;79.11;99853.54;217952;1257;139835;-77
2023/10/04 00:14:51;;;;;;;2.10;0.90;;;;;;;14.12;79.38;99889.63;218348;1257;140732;-74
2023/10/04 00:19:55;;;;;;;1.60;1.10;;;;;;;14.05;79.97;99895.36;218528;1257;140618;-76
2023/10/04 00:25:03;;;;;;;2.70;1.10;;;;;;;14.02;79.93;99907.08;218687;1257;139470;-72
2023/10/04 00:30:11;;;;;;;3.10;1.30;;;;;;;14.03;80.21;99928.73;217683;1257;140041;-76
2023/10/04 00:35:17;;;;;;;2.30;1.20;;;;;;;13.96;80.10;99933.65;218731;1257;139611;-77
2023/10/04 00:40:24;;;;;;;1.30;0.90;;;;;;;13.83;80.30;99944.32;217577;1257;140591;-77
2023/10/04 00:45:31;;;;;;;;;;;;;;;13.76;80.34;99958.02;217644;1259;139871;-79
2023/10/04 00:50:36;;;;;;;1.20;0.70;;;;;;;13.69;80.76;99974.92;218561;1259;127155;-78
2023/10/04 00:55:43;;;;;;;0.90;0.90;;;;;;;13.64;80.79;99969.08;217951;1257;139987;-79
2023/10/04 01:00:48;;;;;;;1.00;1.00;;;;;;;13.62;80.86;99982.38;218300;1257;139824;-78
2023/10/04 01:05:54;;;;;;;1.90;1.00;;;;;;;13.56;81.06;99983.54;218110;1257;140969;-81
2023/10/04 01:10:58;;;;;;;2.90;1.50;;;;;;;13.49;80.76;99996.24;219243;1256;140319;-79
2023/10/04 01:16:02;;;;;;;1.50;0.80;;;;;;;13.44;80.85;100007.48;219294;1259;139680;-78
2023/10/04 01:21:06;;;;;;;1.10;1.00;;;;;;;13.37;80.97;100016.92;217837;1259;140710;-78
2023/10/04 01:26:09;;;;;;;2.00;1.00;;;;;;;13.33;80.83;100026.45;218081;1257;140197;-77
2023/10/04 01:31:13;;;;;;;2.00;1.00;;;;;;;13.25;81.05;100037.83;218154;1258;140692;-77
2023/10/04 01:36:18;;;;;;;2.60;1.00;;;;;;;13.18;81.03;100053.40;217976;1257;140098;-75
2023/10/04 01:41:22;;;;;;;2.20;1.10;;;;;;;13.07;81.31;100066.98;217858;1257;142456;-74
2023/10/04 01:46:27;;;;;;;5.50;1.20;;;;;;;12.98;81.39;100080.25;217532;1257;140097;-75
2023/10/04 01:51:29;;;;;;;1.10;0.80;;;;;;;12.92;81.52;100088.38;217676;1257;142104;-72
2023/10/04 01:56:32;;;;;;;4.20;1.00;;;;;;;12.88;81.51;100094.02;218881;1256;140430;-75
2023/10/04 02:01:36;;;;;;;1.80;1.40;;;;;;;12.85;81.63;100097.52;217517;1257;141125;-76
2023/10/04 02:06:39;;;;;;;1.60;1.40;;;;;;;12.76;81.56;100099.04;218084;1257;139804;-72
2023/10/04 02:11:43;;;;;;;2.40;1.40;;;;;;;12.71;81.66;100103.91;217517;1258;141036;-77
2023/10/04 02:16:49;;;;;;;2.00;1.20;;;;;;;12.67;81.75;100113.46;218912;1257;139910;-74
2023/10/04 02:21:52;;;;;;;2.10;1.50;;;;;;;12.65;82.09;100132.24;218065;1259;140885;-78
2023/10/04 02:26:55;;;;;;;5.70;2.50;;;;;;;12.63;82.49;100132.20;217788;1259;139999;-79
2023/10/04 02:31:59;;;;;;;5.90;1.30;;;;;;;12.64;82.64;100136.55;218532;1257;140121;-79
2023/10/04 02:37:06;;;;;;;2.00;1.80;;;;;;;12.65;82.76;100144.17;218401;1257;140490;-74
2023/10/04 02:42:09;;;;;;;2.60;2.00;;;;;;;12.66;82.66;100156.34;219014;1258;141466;-79
2023/10/04 02:47:13;;;;;;;3.90;1.40;;;;;;;12.69;82.79;100167.75;218079;1259;140942;-73
2023/10/04 02:52:16;;;;;;;4.00;1.80;;;;;;;12.70;82.97;100181.93;218994;1259;140792;-78
2023/10/04 02:57:19;;;;;;;4.90;0.80;;;;;;;12.72;82.97;100189.25;219435;1257;140276;-71
2023/10/04 03:02:23;;;;;;;4.50;1.40;;;;;;;12.74;82.69;100194.00;218725;1257;140186;-79
2023/10/04 03:07:27;;;;;;;4.80;1.60;;;;;;;12.73;82.78;100211.33;217891;1257;140325;-77
2023/10/04 03:12:30;;;;;;;4.00;1.40;;;;;;;12.71;82.82;100216.85;217747;1261;139792;-79
2023/10/04 03:17:34;;;;;;;2.50;2.00;;;;;;;12.70;82.59;100221.89;218198;1257;139969;-77
2023/10/04 03:22:42;;;;;;;3.80;1.60;;;;;;;12.69;82.51;100227.38;218361;1257;140983;-79
2023/10/04 03:27:46;;;;;;;2.50;2.30;;;;;;;12.65;82.37;100239.17;217798;1257;139863;-77
2023/10/04 03:32:53;;;;;;;1.80;1.60;;;;;;;12.61;82.32;100248.55;217816;1257;140082;-77
2023/10/04 03:38:02;;;;;;;2.60;1.80;;;;;;;12.62;82.58;100261.63;218205;1257;140919;-78
2023/10/04 03:43:08;;;;;;;5.90;1.40;;;;;;;12.63;82.60;100264.38;218169;1258;141232;-77
2023/10/04 03:48:18;;;;;;;4.70;1.90;;;;;;;12.62;82.78;100268.95;217914;1257;139877;-77
2023/10/04 03:53:27;;;;;;;3.40;2.10;;;;;;;12.59;82.85;100278.58;217642;1258;139944;-77
2023/10/04 03:58:35;;;;;;;3.10;1.10;;;;;;;12.59;82.61;100285.53;217613;1261;140479;-77
2023/10/04 04:03:39;;;;;;;2.60;2.30;;;;;;;12.62;82.55;100293.14;217771;1259;140461;-77
2023/10/04 04:08:44;;;;;;;13.40;2.10;;;;;;;12.60;82.41;100296.71;217550;1259;140638;-75
2023/10/04 04:13:48;;;;;;;6.80;2.50;;;;;;;12.57;82.38;100293.86;218424;1259;140684;-76
2023/10/04 04:18:54;;;;;;;2.50;1.50;;;;;;;12.52;82.15;100298.28;217875;1257;140835;-78
2023/10/04 04:23:59;;;;;;;4.80;2.30;;;;;;;12.52;82.48;100298.91;218054;1259;140718;-78
2023/10/04 04:29:04;;;;;;;8.50;1.90;;;;;;;12.51;82.47;100299.42;217687;1257;140052;-79
2023/10/04 04:34:13;;;;;;;6.50;1.80;;;;;;;12.52;82.24;100299.23;219552;1257;141119;-79
2023/10/04 04:39:18;;;;;;;5.20;2.40;;;;;;;12.53;82.07;100297.23;218118;1260;140001;-79
2023/10/04 04:44:29;;;;;;;5.30;2.00;;;;;;;12.57;82.20;100315.00;218638;1257;140000;-78
2023/10/04 04:49:32;;;;;;;5.70;1.90;;;;;;;12.59;82.06;100309.38;217741;1257;140880;-78
2023/10/04 04:54:36;;;;;;;2.30;2.10;;;;;;;12.55;81.93;100307.41;218586;1257;140236;-76
2023/10/04 04:59:42;;;;;;;13.30;2.80;;;;;;;12.54;81.93;100310.55;219691;1259;140317;-75
2023/10/04 05:04:47;;;;;;;4.20;1.60;;;;;;;12.52;81.60;100318.00;218047;1261;296244;-78
2023/10/04 05:09:51;;;;;;;6.70;2.10;;;;;;;12.52;81.68;100330.34;218348;1259;140540;-78
2023/10/04 05:14:54;;;;;;;3.60;2.20;;;;;;;12.54;81.53;100337.14;217889;1262;141294;-79
2023/10/04 05:19:58;;;;;;;4.60;2.00;;;;;;;12.54;81.22;100336.70;218401;1259;140100;-78
2023/10/04 05:25:02;;;;;;;7.70;2.70;;;;;;;12.54;81.37;100342.70;218036;1257;139845;-78
2023/10/04 05:30:06;;;;;;;2.40;1.60;;;;;;;12.55;81.44;100350.20;218123;1259;141803;-79
2023/10/04 05:35:12;;;;;;;5.60;2.50;;;;;;;12.56;81.09;100360.71;217439;1259;140277;-76
2023/10/04 05:40:25;;;;;;;3.20;1.90;;;;;;;12.58;81.17;100372.95;217662;1257;140124;-79
2023/10/04 05:45:28;;;;;;;3.50;2.10;;;;;;;12.59;80.99;100379.28;217968;1261;141853;-78
2023/10/04 05:50:32;;;;;;;4.40;2.20;;;;;;;12.61;80.97;100382.65;217675;1259;140294;-78
2023/10/04 05:55:37;;;;;;;5.50;1.70;;;;;;;12.61;81.10;100387.27;218586;1257;140886;-79
2023/10/04 06:00:40;;;;;;;7.90;2.80;;;;;;;12.65;80.83;100390.94;217761;1259;139822;-78
2023/10/04 06:05:44;;;;;;;2.10;1.80;;;;;;;12.70;80.85;100403.70;217570;1262;139752;-78
2023/10/04 06:10:52;;;;;;;1.80;1.50;;;;;;;12.76;80.85;100411.33;218349;1258;139438;-78
2023/10/04 06:15:59;;;;;;;3.80;1.90;;;;;;;12.87;80.74;100414.44;218127;1259;140862;-78
2023/10/04 06:21:05;;;;;;;5.70;2.50;;;;;;;12.89;80.28;100421.45;218208;1258;141121;-79
2023/10/04 06:26:12;;;;;;;6.20;2.30;;;;;;;12.91;79.77;100424.02;217264;1260;141755;-79
2023/10/04 06:31:17;;;;;;;8.60;3.50;;;;;;;13.06;79.92;100417.84;217401;1259;140692;-75
2023/10/04 06:36:21;;;;;;;7.00;2.00;;;;;;;13.34;79.95;100421.78;219304;1259;141403;-73
2023/10/04 06:41:28;;;;;;;9.00;1.90;;;;;;;13.59;79.40;100426.67;218813;1261;140662;-80
2023/10/04 06:46:30;;;;;;;2.60;2.40;;;;;;;13.78;78.87;100421.00;217804;1259;140000;-79
2023/10/04 06:51:35;;;;;;;5.70;2.80;;;;;;;13.94;78.24;100429.60;218991;1258;140360;-76
2023/10/04 06:56:39;;;;;;;3.80;2.10;;;;;;;13.95;77.54;100438.31;218539;1259;142700;-78
2023/10/04 07:01:42;;;;;;;9.30;2.30;;;;;;;14.09;77.07;100455.29;217831;1259;140728;-77
2023/10/04 07:06:46;;;;;;;2.40;1.70;;;;;;;14.13;76.57;100457.94;217642;1257;139778;-77
2023/10/04 07:11:49;;;;;;;8.20;2.20;;;;;;;14.31;76.24;100468.58;217995;1257;141756;-78
2023/10/04 07:16:52;;;;;;;2.90;1.70;;;;;;;14.70;76.13;100472.79;218435;1258;140197;-79
2023/10/04 07:21:57;;;;;;;5.60;2.30;;;;;;;14.89;74.94;100473.54;218229;1259;139568;-79
2023/10/04 07:27:02;;;;;;;6.30;2.60;;;;;;;14.65;74.26;100477.06;218290;1259;139862;-79
2023/10/04 07:32:07;;;;;;;7.00;2.50;;;;;;;14.45;74.33;100477.30;218122;1259;140837;-78
2023/10/04 07:37:11;;;;;;;3.80;2.00;;;;;;;14.28;74.13;100487.71;217776;1258;141318;-78
2023/10/04 07:42:14;;;;;;;3.60;1.70;;;;;;;14.12;74.13;100496.85;217875;1259;140561;-78
2023/10/04 07:47:18;;;;;;;4.20;2.20;;;;;;;14.00;74.39;100501.35;218219;1257;140638;-79
2023/10/04 07:52:23;;;;;;;5.10;2.70;;;;;;;13.97;74.49;100508.91;217931;1259;142175;-79
2023/10/04 07:57:28;;;;;;;6.80;2.40;;;;;;;13.95;74.59;100509.29;217947;1262;143743;-78
2023/10/04 08:02:32;;;;;;;1.90;1.50;;;;;;;13.97;74.47;100509.65;217599;1260;140946;-78
2023/10/04 08:07:37;;;;;;;3.90;2.50;;;;;;;14.06;74.97;100513.21;218192;1260;140252;-79
2023/10/04 08:12:42;;;;;;;8.40;2.90;;;;;;;14.17;74.56;100510.89;217814;1260;140750;-79
2023/10/04 08:17:51;;;;;;;3.70;2.20;;;;;;;14.16;74.53;100518.05;218322;1261;141683;-79
2023/10/04 08:22:59;;;;;;;5.50;2.80;;;;;;;14.11;74.44;100521.13;217654;1260;141385;-78
2023/10/04 08:28:06;;;;;;;4.90;3.20;;;;;;;14.05;74.27;100529.37;218019;1262;140743;-79
2023/10/04 08:33:09;;;;;;;3.00;2.00;;;;;;;14.05;74.38;100527.14;218773;1262;140866;-80
2023/10/04 08:38:13;;;;;;;11.40;2.80;;;;;;;14.05;74.31;100530.19;218675;1262;140173;-79
2023/10/04 08:43:17;;;;;;;5.40;3.20;;;;;;;14.05;74.30;100532.66;219618;1257;139921;-78
2023/10/04 08:48:22;;;;;;;2.10;1.80;;;;;;;14.12;74.40;100523.98;219659;1257;140253;-79
2023/10/04 08:53:44;;;;;;;5.40;2.50;;;;;;;14.12;74.22;100521.20;218614;1259;141047;-79
2023/10/04 08:58:49;;;;;;;4.40;2.30;;;;;;;14.11;74.24;100520.36;218259;1261;140727;-78
2023/10/04 09:03:55;;;;;;;18.70;3.50;;;;;;;14.07;74.32;100526.35;217749;1259;140992;-71
2023/10/04 09:08:59;;;;;;;4.30;2.10;;;;;;;14.15;74.63;100523.61;218197;1258;140714;-79
2023/10/04 09:14:03;;;;;;;4.20;2.90;;;;;;;14.34;74.55;100516.41;217925;1257;141070;-77
2023/10/04 09:19:18;;;;;;;3.00;2.00;;;;;;;14.53;74.65;100515.92;217883;1259;142117;-78
2023/10/04 09:24:22;;;;;;;6.00;2.80;;;;;;;14.64;74.52;100521.29;217681;1261;139778;-78
2023/10/04 09:29:36;;;;;;;7.60;2.40;;;;;;;14.74;74.27;100519.83;217922;1258;140302;-79
2023/10/04 09:34:54;;;;;;;4.90;2.00;;;;;;;14.83;74.04;100529.54;217929;1261;141285;-79
2023/10/04 09:40:13;;;;;;;5.40;2.80;;;;;;;14.85;73.87;100538.33;217847;1261;140040;-80
2023/10/04 09:45:16;;;;;;;;;;;;;;;14.74;73.53;100544.13;217736;1262;141453;-80
2023/10/04 09:50:22;;;;;;;2.10;1.20;;;;;;;14.60;73.48;100541.81;218135;1259;126533;-79
2023/10/04 09:55:28;;;;;;;5.40;2.30;;;;;;;14.50;73.35;100543.30;217760;1257;141274;-78
2023/10/04 10:00:33;;;;;;;6.10;2.90;;;;;;;14.40;73.21;100545.39;217591;1258;140600;-79
2023/10/04 10:05:40;;;;;;;3.00;2.10;;;;;;;14.30;73.24;100548.80;219025;1257;140181;-81
2023/10/04 10:10:47;;;;;;;1.90;1.80;;;;;;;14.29;73.56;100553.08;217747;1257;140610;-76
2023/10/04 10:15:53;;;;;;;;;;;;;;;14.37;73.47;100553.86;218329;1262;141100;-79
2023/10/04 10:20:58;;;;;;;3.20;1.50;;;;;;;14.42;73.68;100551.61;218769;1260;127670;-83
2023/10/04 10:26:20;;;;;;;9.70;2.30;;;;;;;14.52;73.56;100552.40;218064;1262;140388;-79
2023/10/04 10:31:25;;;;;;;2.00;1.90;;;;;;;14.61;73.49;100557.65;218833;1261;140159;-78
2023/10/04 10:36:32;;;;;;;3.60;1.70;;;;;;;14.69;73.39;100553.66;219376;1258;140145;-80
2023/10/04 10:41:39;;;;;;;;;;;;;;;14.80;73.17;100555.26;217553;1260;140841;-79
2023/10/04 10:47:07;;;;;;;3.70;1.70;;;;;;;14.88;73.07;100551.10;219462;1259;126757;-79
2023/10/04 10:52:26;;;;;;;4.60;2.10;;;;;;;15.02;72.86;100544.34;218638;1262;139856;-80
2023/10/04 10:57:31;;;;;;;5.60;2.70;;;;;;;15.10;72.69;100534.91;217435;1262;140580;-79
2023/10/04 11:02:37;;;;;;;9.30;2.10;;;;;;;15.29;72.57;100528.75;217550;1260;139951;-79
2023/10/04 11:07:43;;;;;;;2.50;1.70;;;;;;;15.56;72.52;100529.64;217962;1259;141217;-79
2023/10/04 11:12:48;;;;;;;3.10;2.30;;;;;;;15.81;72.03;100524.93;217316;1258;139968;-81
2023/10/04 11:17:51;;;;;;;1.70;1.50;;;;;;;16.02;71.70;100523.89;218757;1260;140214;-80
2023/10/04 11:22:55;;;;;;;5.80;2.40;;;;;;;16.20;71.25;100525.64;218161;1261;140042;-79
2023/10/04 11:27:59;;;;;;;6.30;2.20;;;;;;;16.32;70.92;100515.55;217970;1262;139922;-80
2023/10/04 11:38:57;;;;;;;2.80;1.90;;;;;;;16.37;69.69;100517.92;214128;1295;660709;-80
2023/10/04 11:44:03;;;;;;;4.50;2.30;;;;;;;16.32;69.12;100519.59;216581;1273;139925;-74
2023/10/04 11:49:14;;;;;;;3.80;1.80;;;;;;;16.27;68.76;100520.49;216051;1267;430082;-75
2023/10/04 11:54:18;;;;;;;5.20;2.00;;;;;;;16.22;68.58;100522.75;217792;1266;139295;-75
2023/10/04 11:59:32;;;;;;;5.50;2.80;;;;;;;16.19;68.33;100517.58;218842;1254;139613;-78
2023/10/04 12:04:37;;;;;;;4.40;2.00;;;;;;;16.22;68.43;100528.41;218573;1254;139732;-79
2023/10/04 12:09:41;;;;;;;3.00;2.00;;;;;;;16.26;68.29;100525.77;219242;1254;141769;-79
2023/10/04 12:14:45;;;;;;;3.30;2.50;;;;;;;16.24;68.16;100529.13;218985;1257;140695;-71
2023/10/04 12:19:49;;;;;;;3.70;2.50;;;;;;;16.14;68.06;100531.56;219013;1253;140025;-78
2023/10/04 12:24:53;;;;;;;3.60;2.40;;;;;;;16.10;68.23;100533.35;218462;1254;139213;-79
2023/10/04 12:29:57;;;;;;;9.40;2.20;;;;;;;16.03;68.30;100530.46;218337;1254;140328;-74
2023/10/04 12:35:00;;;;;;;1.90;1.50;;;;;;;16.02;68.38;100527.54;219165;1254;141638;-73
2023/10/04 12:40:10;;;;;;;6.20;1.30;;;;;;;15.98;68.30;100532.81;218375;1254;139832;-72
2023/10/04 12:45:15;;;;;;;5.40;2.30;;;;;;;15.95;68.21;100532.08;218301;1254;141270;-69
2023/10/04 12:50:18;;;;;;;5.00;2.30;;;;;;;16.02;68.15;100526.58;218478;1254;139149;-70
2023/10/04 12:55:20;;;;;;;2.00;1.80;;;;;;;16.15;68.15;100527.16;218562;1258;140138;-72
2023/10/04 13:00:25;;;;;;;3.30;1.60;;;;;;;16.19;68.08;100532.81;218722;1256;139947;-73
2023/10/04 13:05:30;;;;;;;2.40;1.70;;;;;;;16.16;67.84;100529.11;218495;1256;139182;-72
2023/10/04 13:10:36;;;;;;;5.60;2.90;;;;;;;16.05;67.75;100531.67;218406;1254;139639;-70
2023/10/04 13:15:40;;;;;;;2.90;2.50;;;;;;;16.05;68.03;100526.89;217963;1257;139466;-69
2023/10/04 13:20:44;;;;;;;2.10;1.80;;;;;;;16.12;67.76;100525.52;218343;1254;139639;-70
2023/10/04 13:25:49;;;;;;;5.40;2.30;;;;;;;16.18;67.78;100529.20;218158;1254;140021;-71
2023/10/04 13:30:55;;;;;;;6.80;2.30;;;;;;;16.17;67.69;100529.08;218925;1254;140320;-72
2023/10/04 13:35:59;;;;;;;2.50;1.80;;;;;;;16.17;67.56;100533.70;218243;1258;139271;-77
2023/10/04 13:41:02;;;;;;;4.00;2.50;;;;;;;16.06;67.50;100526.30;218665;1254;141060;-72
2023/10/04 13:46:07;;;;;;;4.00;2.20;;;;;;;16.00;67.66;100523.16;219378;1254;140591;-73
2023/10/04 13:51:12;;;;;;;6.20;1.90;;;;;;;15.93;67.68;100528.13;219115;1256;141098;-71
2023/10/04 13:56:15;;;;;;;6.20;2.60;;;;;;;15.86;67.59;100525.59;218731;1260;139387;-73
2023/10/04 14:01:19;;;;;;;2.40;2.20;;;;;;;15.88;67.66;100524.11;218578;1258;140387;-75
2023/10/04 14:06:25;;;;;;;3.90;1.50;;;;;;;15.93;67.55;100522.38;219148;1257;141631;-71
2023/10/04 14:11:34;;;;;;;3.10;2.10;;;;;;;15.97;67.52;100527.21;218206;1259;138961;-68
2023/10/04 14:16:41;;;;;;;4.70;2.30;;;;;;;16.02;67.55;100522.86;219936;1256;140373;-70
2023/10/04 14:21:46;;;;;;;4.10;2.40;;;;;;;16.00;67.48;100520.05;218189;1256;139828;-70
2023/10/04 14:26:53;;;;;;;4.80;1.90;;;;;;;15.97;67.41;100518.83;218743;1257;139573;-69
2023/10/04 14:31:59;;;;;;;2.30;2.10;;;;;;;15.96;67.05;100518.86;218647;1256;140413;-75
2023/10/04 14:37:03;;;;;;;6.50;2.70;;;;;;;16.02;67.10;100524.54;218548;1254;139462;-79
2023/10/04 14:42:08;;;;;;;7.90;2.30;;;;;;;15.97;66.80;100524.64;218428;1254;139435;-79
2023/10/04 14:47:13;;;;;;;4.20;2.40;;;;;;;15.87;66.94;100518.88;218213;1256;140011;-75
2023/10/04 14:52:17;;;;;;;4.70;3.20;;;;;;;15.78;67.00;100518.33;218363;1258;139161;-76
2023/10/04 14:57:22;;;;;;;2.80;1.80;;;;;;;15.67;66.96;100521.25;218294;1259;142937;-75
2023/10/04 15:02:28;;;;;;;4.40;2.30;;;;;;;15.57;67.04;100514.56;218510;1254;139796;-75
2023/10/04 15:07:33;;;;;;;3.90;2.90;;;;;;;15.57;67.14;100517.84;218474;1254;141425;-72
2023/10/04 15:12:40;;;;;;;4.00;3.40;;;;;;;15.57;67.33;100519.30;217943;1254;140642;-71
2023/10/04 15:17:46;;;;;;;6.80;2.00;;;;;;;15.57;67.27;100518.05;218223;1255;140407;-75
2023/10/04 15:22:54;;;;;;;4.40;2.60;;;;;;;15.55;67.15;100517.30;218479;1256;139061;-74
2023/10/04 15:27:59;;;;;;;6.70;2.10;;;;;;;15.44;67.00;100515.59;219131;1254;139734;-73
2023/10/04 15:33:02;;;;;;;5.00;2.40;;;;;;;15.32;67.01;100518.05;218258;1254;140639;-76
2023/10/04 15:38:07;;;;;;;3.50;2.10;;;;;;;15.21;67.13;100516.98;218179;1258;140578;-74
2023/10/04 15:43:17;;;;;;;4.50;2.10;;;;;;;15.09;67.07;100523.57;218200;1257;140394;-77
2023/10/04 15:48:21;;;;;;;5.70;2.00;;;;;;;14.94;67.11;100527.30;218622;1254;140296;-79
2023/10/04 15:53:25;;;;;;;4.40;2.40;;;;;;;14.76;67.32;100532.53;218233;1255;140252;-75
2023/10/04 15:58:29;;;;;;;4.20;2.60;;;;;;;14.62;67.67;100536.05;219031;1256;140117;-78
2023/10/04 16:03:35;;;;;;;3.40;1.90;;;;;;;14.55;67.76;100539.90;219297;1254;140955;-76
2023/10/04 16:08:41;;;;;;;2.60;2.10;;;;;;;14.44;67.93;100549.16;219744;1254;141328;-76
2023/10/04 16:13:46;;;;;;;6.10;3.20;;;;;;;14.31;68.20;100557.24;220242;1254;139655;-76
2023/10/04 16:18:55;;;;;;;9.90;2.70;;;;;;;14.20;68.33;100562.49;218975;1256;139894;-74
2023/10/04 16:24:02;;;;;;;6.40;3.30;;;;;;;14.13;68.53;100569.32;218829;1256;140626;-78
2023/10/04 16:29:10;;;;;;;8.40;2.60;;;;;;;14.03;68.76;100566.27;218936;1256;139597;-77
2023/10/04 16:34:14;;;;;;;5.40;2.90;;;;;;;13.90;68.94;100567.45;218143;1256;141079;-74
2023/10/04 16:39:23;;;;;;;5.70;2.80;;;;;;;13.77;69.06;100572.70;219057;1259;140599;-75
2023/10/04 16:44:29;;;;;;;5.60;2.60;;;;;;;13.66;69.39;100581.84;218014;1254;139228;-75
2023/10/04 16:49:34;;;;;;;6.10;2.50;;;;;;;13.59;69.84;100586.16;218037;1254;140003;-75
2023/10/04 16:54:40;;;;;;;3.90;2.50;;;;;;;13.48;69.89;100594.34;218188;1254;139818;-72
2023/10/04 16:59:49;;;;;;;4.60;3.10;;;;;;;13.30;70.04;100593.76;218453;1254;139741;-78
2023/10/04 17:04:54;;;;;;;7.20;3.20;;;;;;;13.11;70.37;100597.71;218278;1254;140548;-77
2023/10/04 17:09:59;;;;;;;4.50;2.30;;;;;;;12.95;70.51;100597.98;218729;1254;139548;-79
2023/10/04 17:15:04;;;;;;;2.70;2.50;;;;;;;12.79;70.92;100597.98;219187;1255;140434;-76
2023/10/04 17:20:08;;;;;;;6.60;2.90;;;;;;;12.67;71.33;100601.82;218683;1254;140214;-75
2023/10/04 17:25:16;;;;;;;2.60;2.40;;;;;;;12.56;71.37;100605.70;218272;1254;139675;-80
2023/10/04 17:30:20;;;;;;;4.30;2.50;;;;;;;12.40;71.71;100603.45;218588;1258;139863;-79
2023/10/04 17:35:23;;;;;;;4.10;2.40;;;;;;;12.20;71.89;100600.70;218027;1256;232120;-77
2023/10/04 17:40:27;;;;;;;9.70;2.80;;;;;;;12.03;72.11;100598.76;219327;1254;139957;-73
2023/10/04 17:45:35;;;;;;;4.40;3.00;;;;;;;11.91;72.47;100601.04;219158;1254;141705;-78
2023/10/04 17:50:40;;;;;;;4.70;3.20;;;;;;;11.83;73.04;100603.73;219303;1257;139456;-74
2023/10/04 17:55:44;;;;;;;3.60;3.10;;;;;;;11.71;73.37;100610.41;219980;1254;140971;-72
2023/10/04 18:00:51;;;;;;;3.70;2.50;;;;;;;11.65;73.75;100613.19;219506;1254;139671;-77
2023/10/04 18:05:55;;;;;;;5.60;3.30;;;;;;;11.59;74.20;100616.18;218991;1254;139675;-80
2023/10/04 18:10:58;;;;;;;5.80;2.90;;;;;;;11.61;74.39;100616.12;218948;1257;140325;-70
2023/10/04 18:16:02;;;;;;;8.30;3.80;;;;;;;11.64;74.64;100617.39;218639;1254;141992;-78
2023/10/04 18:21:08;;;;;;;20.50;5.70;;;;;;;11.69;74.73;100621.70;218659;1257;140089;-79
2023/10/04 18:26:14;;;;;;;7.20;4.30;;;;;;;11.69;74.97;100623.79;218898;1257;140070;-78
2023/10/04 18:31:20;;;;;;;7.70;4.20;;;;;;;11.66;74.69;100631.83;218699;1254;160764;-75
2023/10/04 18:36:30;;;;;;;6.90;3.40;;;;;;;11.57;74.78;100636.65;218103;1258;140390;-76
2023/10/04 18:41:34;;;;;;;7.70;3.50;;;;;;;11.47;74.88;100635.21;218261;1257;140178;-78
2023/10/04 18:46:41;;;;;;;5.60;3.50;;;;;;;11.42;75.19;100635.83;218292;1256;139471;-77
2023/10/04 18:51:45;;;;;;;13.10;4.80;;;;;;;11.45;75.89;100637.45;218183;1259;139795;-78
2023/10/04 18:56:48;;;;;;;5.00;3.10;;;;;;;11.52;76.10;100638.87;218185;1257;139845;-75
2023/10/04 19:01:51;;;;;;;7.30;4.20;;;;;;;11.58;76.27;100635.21;218081;1256;140106;-74
2023/10/04 19:06:56;;;;;;;5.90;3.50;;;;;;;11.65;76.46;100635.16;217877;1259;140068;-77
2023/10/04 19:12:01;;;;;;;4.50;3.50;;;;;;;11.71;76.63;100635.73;218529;1256;141006;-79
2023/10/04 19:17:06;;;;;;;6.30;2.90;;;;;;;11.78;76.45;100638.15;218945;1259;139460;-76
2023/10/04 19:22:10;;;;;;;13.30;3.90;;;;;;;11.85;76.59;100635.63;218107;1259;139717;-78
2023/10/04 19:27:13;;;;;;;7.60;4.30;;;;;;;11.93;76.96;100641.39;218441;1259;139784;-73
2023/10/04 19:32:18;;;;;;;7.00;3.30;;;;;;;11.99;76.92;100640.65;218184;1259;140323;-71
2023/10/04 19:37:24;;;;;;;3.80;3.40;;;;;;;12.03;76.71;100639.95;218143;1256;139567;-79
2023/10/04 19:42:28;;;;;;;7.70;4.40;;;;;;;12.06;76.88;100636.05;219523;1256;139950;-73
2023/10/04 19:47:31;;;;;;;5.40;3.70;;;;;;;12.09;76.79;100637.64;219237;1257;139730;-75
2023/10/04 19:52:36;;;;;;;7.20;3.70;;;;;;;12.07;76.53;100632.59;218377;1256;139416;-71
2023/10/04 19:57:41;;;;;;;6.20;3.20;;;;;;;12.05;76.51;100637.42;219946;1256;140310;-72
2023/10/04 20:02:52;;;;;;;9.00;4.90;;;;;;;12.04;76.59;100641.72;218038;1257;139714;-77
2023/10/04 20:07:58;;;;;;;10.20;4.30;;;;;;;12.04;76.51;100646.36;218679;1259;139419;-73
2023/10/04 20:13:05;;;;;;;11.10;5.10;;;;;;;12.03;76.73;100645.58;217888;1257;139767;-72
2023/10/04 20:18:15;;;;;;;6.00;3.30;;;;;;;12.05;76.95;100642.23;218084;1257;140818;-74
2023/10/04 20:23:25;;;;;;;5.90;4.70;;;;;;;12.06;76.83;100638.90;218044;1257;224096;-72
2023/10/04 20:28:31;;;;;;;5.80;3.70;;;;;;;12.04;76.85;100636.17;218542;1259;140728;-74
2023/10/04 20:33:37;;;;;;;5.80;4.10;;;;;;;11.99;76.99;100634.11;218181;1257;140557;-72
2023/10/04 20:38:47;;;;;;;6.00;3.30;;;;;;;11.93;77.18;100641.80;217867;1256;140086;-76
2023/10/04 20:43:53;;;;;;;5.40;3.40;;;;;;;11.88;77.13;100644.16;218747;1258;140458;-79
2023/10/04 20:49:01;;;;;;;9.50;4.30;;;;;;;11.87;77.15;100642.36;218682;1257;140704;-73
2023/10/04 20:54:07;;;;;;;7.80;4.00;;;;;;;11.85;77.32;100636.46;217783;1257;141738;-74
2023/10/04 20:59:13;;;;;;;10.70;4.30;;;;;;;11.85;77.30;100640.57;218603;1256;140688;-73
2023/10/04 21:04:19;;;;;;;6.90;3.90;;;;;;;11.85;77.16;100638.84;218725;1257;141562;-75
2023/10/04 21:09:23;;;;;;;7.50;3.60;;;;;;;11.80;77.19;100638.96;219970;1257;139695;-75
2023/10/04 21:14:28;;;;;;;13.80;4.50;;;;;;;11.74;77.26;100632.98;218480;1257;140291;-74
2023/10/04 21:19:35;;;;;;;6.50;3.20;;;;;;;11.71;77.19;100633.99;217926;1256;140504;-74
2023/10/04 21:24:46;;;;;;;6.60;4.20;;;;;;;11.66;77.24;100633.30;218131;1257;139509;-80
2023/10/04 21:29:52;;;;;;;7.40;4.00;;;;;;;11.61;77.26;100637.11;218161;1259;139505;-81
2023/10/04 21:34:57;;;;;;;10.20;4.40;;;;;;;11.60;77.51;100637.73;218963;1257;139884;-81
2023/10/04 21:40:03;;;;;;;7.90;4.00;;;;;;;11.61;77.73;100641.76;219331;1259;140360;-74
2023/10/04 21:45:13;;;;;;;7.30;3.60;;;;;;;11.55;77.64;100636.70;220386;1257;141193;-74
2023/10/04 21:50:21;;;;;;;6.30;3.70;;;;;;;11.50;77.54;100631.52;218711;1257;141014;-73
2023/10/04 21:55:29;;;;;;;11.00;4.70;;;;;;;11.43;77.65;100631.30;219316;1256;140504;-73
2023/10/04 22:00:43;;;;;;;5.30;3.60;;;;;;;11.34;77.56;100626.48;218127;1257;140952;-75
2023/10/04 22:05:57;;;;;;;5.00;4.40;;;;;;;11.25;77.57;100629.40;218791;1259;139807;-76
2023/10/04 22:11:02;;;;;;;6.60;4.30;;;;;;;11.18;77.63;100623.50;217981;1257;139685;-77
2023/10/04 22:16:10;;;;;;;7.50;3.80;;;;;;;11.13;77.90;100622.00;218904;1259;139564;-78
2023/10/04 22:21:15;;;;;;;4.60;3.50;;;;;;;11.08;78.06;100621.50;218576;1256;139517;-78
2023/10/04 22:26:21;;;;;;;5.10;3.60;;;;;;;11.01;78.04;100615.41;218166;1257;140269;-80
2023/10/04 22:31:28;;;;;;;5.30;3.90;;;;;;;10.93;78.22;100605.54;218238;1257;139561;-80
2023/10/04 22:36:36;;;;;;;15.30;4.80;;;;;;;10.92;78.38;100599.47;217803;1259;141720;-76
2023/10/04 22:41:42;;;;;;;8.80;4.80;;;;;;;10.90;78.55;100598.45;217706;1259;140183;-76
2023/10/04 22:46:47;;;;;;;5.40;3.90;;;;;;;10.86;78.61;100595.60;217878;1259;140652;-74
2023/10/04 22:51:54;;;;;;;10.20;4.40;;;;;;;10.83;78.69;100591.23;217795;1255;139602;-76
2023/10/04 22:57:00;;;;;;;;;;;;;;;10.78;78.60;100583.63;218644;1257;140925;-77
2023/10/04 23:02:06;;;;;;;11.20;4.60;;;;;;;10.69;78.85;100578.48;218413;1259;126338;-78
2023/10/04 23:07:13;;;;;;;6.20;3.10;;;;;;;10.63;79.00;100572.01;218191;1257;140352;-74
2023/10/04 23:12:20;;;;;;;5.30;4.70;;;;;;;10.59;79.18;100568.02;218078;1259;139922;-76
2023/10/04 23:17:26;;;;;;;8.70;3.50;;;;;;;10.56;79.10;100555.92;219332;1257;143065;-74